sensor_id;sensor_type;location;lat;lon;timestamp;P1;durP1;ratioP1;P2;durP2;ratioP2
75758;SDS011;64371;47.566;19.086;2023-09-07T00:01:27;7.18;;;3.97;;
75758;SDS011;64371;47.566;19.086;2023-09-07T00:04:29;8.00;;;4.18;;
75758;SDS011;64371;47.566;19.086;2023-09-07T00:07:33;5.80;;;3.67;;
75758;SDS011;64371;47.566;19.086;2023-09-07T00:10:37;5.90;;;3.83;;
75758;SDS011;64371;47.566;19.086;2023-09-07T00:13:40;6.65;;;3.63;;
75758;SDS011;64371;47.566;19.086;2023-09-07T00:16:43;5.75;;;4.00;;
75758;SDS011;64371;47.566;19.086;2023-09-07T00:19:46;4.13;;;3.38;;
75758;SDS011;64371;47.566;19.086;2023-09-07T00:22:53;7.00;;;3.63;;
75758;SDS011;64371;47.566;19.086;2023-09-07T00:25:55;5.73;;;3.77;;
75758;SDS011;64371;47.566;19.086;2023-09-07T00:28:57;6.78;;;3.80;;
75758;SDS011;64371;47.566;19.086;2023-09-07T00:32:01;4.95;;;3.70;;
75758;SDS011;64371;47.566;19.086;2023-09-07T00:35:04;4.85;;;3.92;;
75758;SDS011;64371;47.566;19.086;2023-09-07T00:38:07;5.43;;;4.00;;
75758;SDS011;64371;47.566;19.086;2023-09-07T00:41:10;5.70;;;3.97;;
75758;SDS011;64371;47.566;19.086;2023-09-07T00:44:13;5.75;;;3.63;;
75758;SDS011;64371;47.566;19.086;2023-09-07T00:47:16;6.05;;;3.95;;
75758;SDS011;64371;47.566;19.086;2023-09-07T00:50:19;6.57;;;4.00;;
75758;SDS011;64371;47.566;19.086;2023-09-07T00:53:21;7.28;;;3.80;;
75758;SDS011;64371;47.566;19.086;2023-09-07T00:56:27;6.30;;;3.67;;
75758;SDS011;64371;47.566;19.086;2023-09-07T00:59:33;6.50;;;3.85;;
75758;SDS011;64371;47.566;19.086;2023-09-07T01:02:36;6.05;;;3.70;;
75758;SDS011;64371;47.566;19.086;2023-09-07T01:05:41;6.93;;;4.00;;
75758;SDS011;64371;47.566;19.086;2023-09-07T01:09:06;6.75;;;3.83;;
75758;SDS011;64371;47.566;19.086;2023-09-07T01:12:15;5.87;;;3.80;;
75758;SDS011;64371;47.566;19.086;2023-09-07T01:15:18;6.95;;;3.60;;
75758;SDS011;64371;47.566;19.086;2023-09-07T01:18:23;6.50;;;3.78;;
75758;SDS011;64371;47.566;19.086;2023-09-07T01:21:27;5.60;;;4.00;;
75758;SDS011;64371;47.566;19.086;2023-09-07T01:24:37;5.80;;;4.30;;
75758;SDS011;64371;47.566;19.086;2023-09-07T01:27:41;5.70;;;3.63;;
75758;SDS011;64371;47.566;19.086;2023-09-07T01:30:43;5.10;;;4.00;;
75758;SDS011;64371;47.566;19.086;2023-09-07T01:33:47;5.78;;;4.00;;
75758;SDS011;64371;47.566;19.086;2023-09-07T01:36:50;5.00;;;3.60;;
75758;SDS011;64371;47.566;19.086;2023-09-07T01:39:52;7.13;;;3.90;;
75758;SDS011;64371;47.566;19.086;2023-09-07T01:42:55;5.10;;;3.60;;
75758;SDS011;64371;47.566;19.086;2023-09-07T01:45:57;5.63;;;3.90;;
75758;SDS011;64371;47.566;19.086;2023-09-07T01:49:00;5.25;;;3.72;;
75758;SDS011;64371;47.566;19.086;2023-09-07T01:52:02;6.47;;;3.85;;
75758;SDS011;64371;47.566;19.086;2023-09-07T01:55:05;5.55;;;3.88;;
75758;SDS011;64371;47.566;19.086;2023-09-07T01:58:08;7.43;;;3.73;;
75758;SDS011;64371;47.566;19.086;2023-09-07T02:01:20;6.00;;;3.60;;
75758;SDS011;64371;47.566;19.086;2023-09-07T02:04:24;5.55;;;3.85;;
75758;SDS011;64371;47.566;19.086;2023-09-07T02:07:26;5.00;;;3.55;;
75758;SDS011;64371;47.566;19.086;2023-09-07T02:10:29;5.15;;;3.85;;
75758;SDS011;64371;47.566;19.086;2023-09-07T02:13:32;5.20;;;3.70;;
75758;SDS011;64371;47.566;19.086;2023-09-07T02:16:35;5.38;;;3.72;;
75758;SDS011;64371;47.566;19.086;2023-09-07T02:19:37;5.47;;;3.90;;
75758;SDS011;64371;47.566;19.086;2023-09-07T02:22:40;5.43;;;3.85;;
75758;SDS011;64371;47.566;19.086;2023-09-07T02:25:42;6.43;;;3.97;;
75758;SDS011;64371;47.566;19.086;2023-09-07T02:28:45;5.70;;;3.70;;
75758;SDS011;64371;47.566;19.086;2023-09-07T02:31:47;6.65;;;4.00;;
75758;SDS011;64371;47.566;19.086;2023-09-07T02:34:50;6.30;;;4.50;;
75758;SDS011;64371;47.566;19.086;2023-09-07T02:37:53;4.95;;;3.97;;
75758;SDS011;64371;47.566;19.086;2023-09-07T02:40:56;5.80;;;3.78;;
75758;SDS011;64371;47.566;19.086;2023-09-07T02:44:00;5.40;;;4.07;;
75758;SDS011;64371;47.566;19.086;2023-09-07T02:47:03;5.35;;;4.05;;
75758;SDS011;64371;47.566;19.086;2023-09-07T02:50:05;7.20;;;4.10;;
75758;SDS011;64371;47.566;19.086;2023-09-07T02:53:08;7.47;;;4.07;;
75758;SDS011;64371;47.566;19.086;2023-09-07T02:56:10;8.35;;;4.20;;
75758;SDS011;64371;47.566;19.086;2023-09-07T02:59:15;6.87;;;3.90;;
75758;SDS011;64371;47.566;19.086;2023-09-07T03:02:18;6.88;;;4.20;;
75758;SDS011;64371;47.566;19.086;2023-09-07T03:05:20;8.32;;;4.38;;
75758;SDS011;64371;47.566;19.086;2023-09-07T03:08:23;8.05;;;4.10;;
75758;SDS011;64371;47.566;19.086;2023-09-07T03:11:27;6.32;;;4.45;;
75758;SDS011;64371;47.566;19.086;2023-09-07T03:14:36;7.20;;;3.90;;
75758;SDS011;64371;47.566;19.086;2023-09-07T03:17:38;7.13;;;4.10;;
75758;SDS011;64371;47.566;19.086;2023-09-07T03:20:41;6.70;;;4.40;;
75758;SDS011;64371;47.566;19.086;2023-09-07T03:23:46;7.45;;;5.10;;
75758;SDS011;64371;47.566;19.086;2023-09-07T03:26:50;7.50;;;4.78;;
75758;SDS011;64371;47.566;19.086;2023-09-07T03:29:52;10.93;;;6.20;;
75758;SDS011;64371;47.566;19.086;2023-09-07T03:32:56;9.75;;;5.28;;
75758;SDS011;64371;47.566;19.086;2023-09-07T03:35:58;10.43;;;5.03;;
75758;SDS011;64371;47.566;19.086;2023-09-07T03:39:01;9.75;;;4.82;;
75758;SDS011;64371;47.566;19.086;2023-09-07T03:42:04;7.10;;;4.53;;
75758;SDS011;64371;47.566;19.086;2023-09-07T03:45:06;8.93;;;4.57;;
75758;SDS011;64371;47.566;19.086;2023-09-07T03:48:09;7.43;;;5.07;;
75758;SDS011;64371;47.566;19.086;2023-09-07T03:51:12;6.35;;;4.30;;
75758;SDS011;64371;47.566;19.086;2023-09-07T03:54:15;7.70;;;4.75;;
75758;SDS011;64371;47.566;19.086;2023-09-07T03:57:18;6.80;;;4.70;;
75758;SDS011;64371;47.566;19.086;2023-09-07T04:00:22;9.57;;;5.00;;
75758;SDS011;64371;47.566;19.086;2023-09-07T04:03:26;8.70;;;5.07;;
75758;SDS011;64371;47.566;19.086;2023-09-07T04:06:30;6.57;;;4.47;;
75758;SDS011;64371;47.566;19.086;2023-09-07T04:09:33;6.75;;;4.95;;
75758;SDS011;64371;47.566;19.086;2023-09-07T04:12:35;8.63;;;5.20;;
75758;SDS011;64371;47.566;19.086;2023-09-07T04:15:41;10.03;;;5.43;;
75758;SDS011;64371;47.566;19.086;2023-09-07T04:18:45;7.60;;;5.10;;
75758;SDS011;64371;47.566;19.086;2023-09-07T04:21:48;7.82;;;4.50;;
75758;SDS011;64371;47.566;19.086;2023-09-07T04:24:50;8.75;;;4.35;;
75758;SDS011;64371;47.566;19.086;2023-09-07T04:27:53;10.43;;;4.55;;
75758;SDS011;64371;47.566;19.086;2023-09-07T04:30:55;8.80;;;5.37;;
75758;SDS011;64371;47.566;19.086;2023-09-07T04:33:58;8.35;;;4.97;;
75758;SDS011;64371;47.566;19.086;2023-09-07T04:37:01;7.03;;;4.72;;
75758;SDS011;64371;47.566;19.086;2023-09-07T04:40:05;7.15;;;4.60;;
75758;SDS011;64371;47.566;19.086;2023-09-07T04:43:08;8.23;;;4.55;;
75758;SDS011;64371;47.566;19.086;2023-09-07T04:46:11;8.60;;;4.57;;
75758;SDS011;64371;47.566;19.086;2023-09-07T04:49:14;8.52;;;4.50;;
75758;SDS011;64371;47.566;19.086;2023-09-07T04:52:17;8.45;;;4.57;;
75758;SDS011;64371;47.566;19.086;2023-09-07T04:55:20;8.07;;;5.00;;
75758;SDS011;64371;47.566;19.086;2023-09-07T04:58:23;7.88;;;4.53;;
75758;SDS011;64371;47.566;19.086;2023-09-07T05:01:25;7.13;;;4.20;;
75758;SDS011;64371;47.566;19.086;2023-09-07T05:04:29;7.03;;;4.45;;
75758;SDS011;64371;47.566;19.086;2023-09-07T05:07:34;9.20;;;4.80;;
75758;SDS011;64371;47.566;19.086;2023-09-07T05:10:37;6.15;;;4.50;;
75758;SDS011;64371;47.566;19.086;2023-09-07T05:13:40;7.55;;;4.57;;
75758;SDS011;64371;47.566;19.086;2023-09-07T05:16:43;7.80;;;4.80;;
75758;SDS011;64371;47.566;19.086;2023-09-07T05:19:49;7.90;;;5.00;;
75758;SDS011;64371;47.566;19.086;2023-09-07T05:22:53;9.48;;;4.53;;
75758;SDS011;64371;47.566;19.086;2023-09-07T05:25:59;6.97;;;4.32;;
75758;SDS011;64371;47.566;19.086;2023-09-07T05:29:02;8.30;;;3.85;;
75758;SDS011;64371;47.566;19.086;2023-09-07T05:32:05;10.53;;;4.30;;
75758;SDS011;64371;47.566;19.086;2023-09-07T05:35:08;7.57;;;4.68;;
75758;SDS011;64371;47.566;19.086;2023-09-07T05:38:13;9.15;;;4.63;;
75758;SDS011;64371;47.566;19.086;2023-09-07T05:41:18;10.00;;;4.45;;
75758;SDS011;64371;47.566;19.086;2023-09-07T05:44:20;8.55;;;4.22;;
75758;SDS011;64371;47.566;19.086;2023-09-07T05:47:23;7.87;;;4.53;;
75758;SDS011;64371;47.566;19.086;2023-09-07T05:50:28;11.45;;;4.63;;
75758;SDS011;64371;47.566;19.086;2023-09-07T05:53:33;10.65;;;4.32;;
75758;SDS011;64371;47.566;19.086;2023-09-07T05:56:36;7.35;;;4.30;;
75758;SDS011;64371;47.566;19.086;2023-09-07T05:59:38;9.60;;;4.22;;
75758;SDS011;64371;47.566;19.086;2023-09-07T06:02:45;7.43;;;4.87;;
75758;SDS011;64371;47.566;19.086;2023-09-07T06:05:50;10.20;;;4.40;;
75758;SDS011;64371;47.566;19.086;2023-09-07T06:08:55;6.88;;;4.20;;
75758;SDS011;64371;47.566;19.086;2023-09-07T06:12:10;4.85;;;3.90;;
75758;SDS011;64371;47.566;19.086;2023-09-07T06:15:17;8.60;;;4.63;;
75758;SDS011;64371;47.566;19.086;2023-09-07T06:18:21;6.73;;;4.33;;
75758;SDS011;64371;47.566;19.086;2023-09-07T06:21:26;7.50;;;4.10;;
75758;SDS011;64371;47.566;19.086;2023-09-07T06:24:29;7.20;;;4.32;;
75758;SDS011;64371;47.566;19.086;2023-09-07T06:27:32;10.02;;;4.20;;
75758;SDS011;64371;47.566;19.086;2023-09-07T06:30:36;7.45;;;4.20;;
75758;SDS011;64371;47.566;19.086;2023-09-07T06:33:39;7.07;;;4.40;;
75758;SDS011;64371;47.566;19.086;2023-09-07T06:36:41;5.97;;;3.78;;
75758;SDS011;64371;47.566;19.086;2023-09-07T06:39:52;6.22;;;4.15;;
75758;SDS011;64371;47.566;19.086;2023-09-07T06:42:58;6.03;;;4.07;;
75758;SDS011;64371;47.566;19.086;2023-09-07T06:46:07;6.93;;;4.15;;
75758;SDS011;64371;47.566;19.086;2023-09-07T06:49:11;5.43;;;4.10;;
75758;SDS011;64371;47.566;19.086;2023-09-07T06:52:14;8.55;;;4.50;;
75758;SDS011;64371;47.566;19.086;2023-09-07T06:55:17;5.32;;;3.78;;
75758;SDS011;64371;47.566;19.086;2023-09-07T06:58:23;5.93;;;3.97;;
75758;SDS011;64371;47.566;19.086;2023-09-07T07:01:26;9.27;;;3.92;;
75758;SDS011;64371;47.566;19.086;2023-09-07T07:04:29;5.00;;;3.77;;
75758;SDS011;64371;47.566;19.086;2023-09-07T07:11:01;6.45;;;4.60;;
75758;SDS011;64371;47.566;19.086;2023-09-07T07:14:04;8.80;;;4.13;;
75758;SDS011;64371;47.566;19.086;2023-09-07T07:17:07;8.35;;;3.90;;
75758;SDS011;64371;47.566;19.086;2023-09-07T07:20:11;7.23;;;3.60;;
75758;SDS011;64371;47.566;19.086;2023-09-07T07:23:24;6.05;;;4.07;;
75758;SDS011;64371;47.566;19.086;2023-09-07T07:26:33;6.03;;;4.40;;
75758;SDS011;64371;47.566;19.086;2023-09-07T07:29:36;6.72;;;4.07;;
75758;SDS011;64371;47.566;19.086;2023-09-07T07:32:41;7.40;;;4.60;;
75758;SDS011;64371;47.566;19.086;2023-09-07T07:35:47;7.17;;;4.40;;
75758;SDS011;64371;47.566;19.086;2023-09-07T07:42:25;5.82;;;3.88;;
75758;SDS011;64371;47.566;19.086;2023-09-07T07:45:28;5.40;;;4.18;;
75758;SDS011;64371;47.566;19.086;2023-09-07T07:48:31;6.90;;;4.30;;
75758;SDS011;64371;47.566;19.086;2023-09-07T07:51:39;7.70;;;4.33;;
75758;SDS011;64371;47.566;19.086;2023-09-07T07:54:41;8.00;;;4.07;;
75758;SDS011;64371;47.566;19.086;2023-09-07T07:57:45;5.85;;;3.90;;
75758;SDS011;64371;47.566;19.086;2023-09-07T08:00:47;5.78;;;4.15;;
75758;SDS011;64371;47.566;19.086;2023-09-07T08:04:00;8.48;;;4.10;;
75758;SDS011;64371;47.566;19.086;2023-09-07T08:07:08;15.47;;;4.70;;
75758;SDS011;64371;47.566;19.086;2023-09-07T08:10:12;6.03;;;4.68;;
75758;SDS011;64371;47.566;19.086;2023-09-07T08:13:15;7.38;;;4.47;;
75758;SDS011;64371;47.566;19.086;2023-09-07T08:16:18;6.10;;;4.15;;
75758;SDS011;64371;47.566;19.086;2023-09-07T08:19:23;8.57;;;4.78;;
75758;SDS011;64371;47.566;19.086;2023-09-07T08:22:37;7.50;;;4.17;;
75758;SDS011;64371;47.566;19.086;2023-09-07T08:25:44;8.52;;;5.40;;
75758;SDS011;64371;47.566;19.086;2023-09-07T08:28:50;11.68;;;5.43;;
75758;SDS011;64371;47.566;19.086;2023-09-07T08:31:57;7.03;;;4.28;;
75758;SDS011;64371;47.566;19.086;2023-09-07T08:35:05;9.77;;;4.13;;
75758;SDS011;64371;47.566;19.086;2023-09-07T08:39:01;8.07;;;4.10;;
75758;SDS011;64371;47.566;19.086;2023-09-07T08:42:08;8.07;;;4.57;;
75758;SDS011;64371;47.566;19.086;2023-09-07T08:45:14;8.07;;;4.43;;
75758;SDS011;64371;47.566;19.086;2023-09-07T08:48:26;8.27;;;4.07;;
75758;SDS011;64371;47.566;19.086;2023-09-07T08:51:31;6.78;;;3.83;;
75758;SDS011;64371;47.566;19.086;2023-09-07T08:54:34;5.67;;;4.60;;
75758;SDS011;64371;47.566;19.086;2023-09-07T08:57:39;7.47;;;4.03;;
75758;SDS011;64371;47.566;19.086;2023-09-07T09:00:41;7.10;;;4.35;;
75758;SDS011;64371;47.566;19.086;2023-09-07T09:03:46;6.50;;;3.35;;
75758;SDS011;64371;47.566;19.086;2023-09-07T09:06:54;6.45;;;3.67;;
75758;SDS011;64371;47.566;19.086;2023-09-07T09:10:05;6.87;;;4.57;;
75758;SDS011;64371;47.566;19.086;2023-09-07T09:13:16;5.03;;;4.03;;
75758;SDS011;64371;47.566;19.086;2023-09-07T09:16:34;7.57;;;3.65;;
75758;SDS011;64371;47.566;19.086;2023-09-07T09:19:48;6.72;;;3.97;;
75758;SDS011;64371;47.566;19.086;2023-09-07T09:22:53;5.10;;;3.70;;
75758;SDS011;64371;47.566;19.086;2023-09-07T09:26:10;5.67;;;3.53;;
75758;SDS011;64371;47.566;19.086;2023-09-07T09:29:13;6.30;;;3.53;;
75758;SDS011;64371;47.566;19.086;2023-09-07T09:32:21;6.50;;;4.07;;
75758;SDS011;64371;47.566;19.086;2023-09-07T09:35:28;7.30;;;4.40;;
75758;SDS011;64371;47.566;19.086;2023-09-07T09:38:33;4.88;;;3.15;;
75758;SDS011;64371;47.566;19.086;2023-09-07T09:41:37;4.63;;;3.00;;
75758;SDS011;64371;47.566;19.086;2023-09-07T09:44:40;7.22;;;3.35;;
75758;SDS011;64371;47.566;19.086;2023-09-07T09:47:45;5.43;;;3.75;;
75758;SDS011;64371;47.566;19.086;2023-09-07T09:50:49;7.47;;;3.03;;
75758;SDS011;64371;47.566;19.086;2023-09-07T09:53:53;4.90;;;3.40;;
75758;SDS011;64371;47.566;19.086;2023-09-07T09:56:55;3.70;;;2.90;;
75758;SDS011;64371;47.566;19.086;2023-09-07T10:00:02;7.07;;;3.85;;
75758;SDS011;64371;47.566;19.086;2023-09-07T10:03:33;4.97;;;3.60;;
75758;SDS011;64371;47.566;19.086;2023-09-07T10:06:50;8.68;;;3.83;;
75758;SDS011;64371;47.566;19.086;2023-09-07T10:09:59;6.53;;;3.30;;
75758;SDS011;64371;47.566;19.086;2023-09-07T10:13:08;4.07;;;2.87;;
75758;SDS011;64371;47.566;19.086;2023-09-07T10:16:21;6.18;;;3.30;;
75758;SDS011;64371;47.566;19.086;2023-09-07T10:19:24;5.82;;;3.58;;
75758;SDS011;64371;47.566;19.086;2023-09-07T10:22:32;6.00;;;3.25;;
75758;SDS011;64371;47.566;19.086;2023-09-07T10:25:36;4.30;;;3.30;;
75758;SDS011;64371;47.566;19.086;2023-09-07T10:28:59;4.20;;;3.53;;
75758;SDS011;64371;47.566;19.086;2023-09-07T10:32:09;5.70;;;3.58;;
75758;SDS011;64371;47.566;19.086;2023-09-07T10:35:34;4.88;;;2.85;;
75758;SDS011;64371;47.566;19.086;2023-09-07T10:38:37;4.03;;;3.38;;
75758;SDS011;64371;47.566;19.086;2023-09-07T10:41:43;3.80;;;2.90;;
75758;SDS011;64371;47.566;19.086;2023-09-07T10:44:52;4.93;;;2.97;;
75758;SDS011;64371;47.566;19.086;2023-09-07T10:47:59;6.03;;;3.60;;
75758;SDS011;64371;47.566;19.086;2023-09-07T10:51:06;6.10;;;3.38;;
75758;SDS011;64371;47.566;19.086;2023-09-07T10:54:18;3.42;;;2.45;;
75758;SDS011;64371;47.566;19.086;2023-09-07T10:57:23;6.85;;;4.18;;
75758;SDS011;64371;47.566;19.086;2023-09-07T11:00:26;4.30;;;3.10;;
75758;SDS011;64371;47.566;19.086;2023-09-07T11:03:30;4.43;;;3.50;;
75758;SDS011;64371;47.566;19.086;2023-09-07T11:06:33;4.88;;;3.60;;
75758;SDS011;64371;47.566;19.086;2023-09-07T11:09:40;7.13;;;3.00;;
75758;SDS011;64371;47.566;19.086;2023-09-07T11:12:43;5.20;;;3.35;;
75758;SDS011;64371;47.566;19.086;2023-09-07T11:15:46;4.90;;;3.37;;
75758;SDS011;64371;47.566;19.086;2023-09-07T11:18:50;5.70;;;2.72;;
75758;SDS011;64371;47.566;19.086;2023-09-07T11:21:54;4.18;;;3.30;;
75758;SDS011;64371;47.566;19.086;2023-09-07T11:24:58;6.13;;;3.45;;
75758;SDS011;64371;47.566;19.086;2023-09-07T11:28:03;5.70;;;3.42;;
75758;SDS011;64371;47.566;19.086;2023-09-07T11:31:08;7.50;;;3.83;;
75758;SDS011;64371;47.566;19.086;2023-09-07T11:34:14;3.20;;;1.90;;
75758;SDS011;64371;47.566;19.086;2023-09-07T11:37:23;5.57;;;3.25;;
75758;SDS011;64371;47.566;19.086;2023-09-07T11:40:26;5.15;;;2.97;;
75758;SDS011;64371;47.566;19.086;2023-09-07T11:43:29;5.22;;;3.63;;
75758;SDS011;64371;47.566;19.086;2023-09-07T11:46:32;6.87;;;2.97;;
75758;SDS011;64371;47.566;19.086;2023-09-07T11:49:34;6.18;;;3.03;;
75758;SDS011;64371;47.566;19.086;2023-09-07T11:52:37;5.18;;;3.20;;
75758;SDS011;64371;47.566;19.086;2023-09-07T11:55:42;4.55;;;3.30;;
75758;SDS011;64371;47.566;19.086;2023-09-07T11:58:46;6.20;;;3.08;;
75758;SDS011;64371;47.566;19.086;2023-09-07T12:01:49;5.00;;;3.20;;
75758;SDS011;64371;47.566;19.086;2023-09-07T12:04:51;4.45;;;3.53;;
75758;SDS011;64371;47.566;19.086;2023-09-07T12:07:54;4.00;;;2.65;;
75758;SDS011;64371;47.566;19.086;2023-09-07T12:10:56;4.88;;;3.33;;
75758;SDS011;64371;47.566;19.086;2023-09-07T12:13:59;7.97;;;3.25;;
75758;SDS011;64371;47.566;19.086;2023-09-07T12:17:02;5.50;;;3.80;;
75758;SDS011;64371;47.566;19.086;2023-09-07T12:20:05;7.45;;;3.75;;
75758;SDS011;64371;47.566;19.086;2023-09-07T12:23:13;5.30;;;3.58;;
75758;SDS011;64371;47.566;19.086;2023-09-07T12:26:16;6.93;;;3.58;;
75758;SDS011;64371;47.566;19.086;2023-09-07T12:29:19;5.13;;;3.40;;
75758;SDS011;64371;47.566;19.086;2023-09-07T12:32:22;5.03;;;3.20;;
75758;SDS011;64371;47.566;19.086;2023-09-07T12:35:24;7.28;;;2.90;;
75758;SDS011;64371;47.566;19.086;2023-09-07T12:38:27;7.57;;;3.60;;
75758;SDS011;64371;47.566;19.086;2023-09-07T12:41:31;7.88;;;3.05;;
75758;SDS011;64371;47.566;19.086;2023-09-07T12:44:34;5.28;;;3.10;;
75758;SDS011;64371;47.566;19.086;2023-09-07T12:47:42;4.20;;;3.23;;
75758;SDS011;64371;47.566;19.086;2023-09-07T12:50:44;3.17;;;2.42;;
75758;SDS011;64371;47.566;19.086;2023-09-07T12:53:47;4.85;;;3.10;;
75758;SDS011;64371;47.566;19.086;2023-09-07T12:56:51;5.40;;;3.17;;
75758;SDS011;64371;47.566;19.086;2023-09-07T12:59:55;7.13;;;2.92;;
75758;SDS011;64371;47.566;19.086;2023-09-07T13:02:57;4.07;;;3.40;;
75758;SDS011;64371;47.566;19.086;2023-09-07T13:06:04;3.50;;;2.58;;
75758;SDS011;64371;47.566;19.086;2023-09-07T13:09:11;7.20;;;3.67;;
75758;SDS011;64371;47.566;19.086;2023-09-07T13:12:14;5.43;;;3.15;;
75758;SDS011;64371;47.566;19.086;2023-09-07T13:15:16;4.35;;;3.45;;
75758;SDS011;64371;47.566;19.086;2023-09-07T13:18:19;4.37;;;3.13;;
75758;SDS011;64371;47.566;19.086;2023-09-07T13:21:21;4.47;;;3.15;;
75758;SDS011;64371;47.566;19.086;2023-09-07T13:24:24;5.28;;;2.90;;
75758;SDS011;64371;47.566;19.086;2023-09-07T13:27:27;3.78;;;2.67;;
75758;SDS011;64371;47.566;19.086;2023-09-07T13:30:30;4.70;;;2.65;;
75758;SDS011;64371;47.566;19.086;2023-09-07T13:33:32;5.47;;;3.20;;
75758;SDS011;64371;47.566;19.086;2023-09-07T13:36:35;5.47;;;2.92;;
75758;SDS011;64371;47.566;19.086;2023-09-07T13:39:37;5.75;;;3.33;;
75758;SDS011;64371;47.566;19.086;2023-09-07T13:42:40;6.57;;;2.75;;
75758;SDS011;64371;47.566;19.086;2023-09-07T13:45:42;4.22;;;3.35;;
75758;SDS011;64371;47.566;19.086;2023-09-07T13:48:46;7.93;;;3.70;;
75758;SDS011;64371;47.566;19.086;2023-09-07T13:51:48;4.80;;;2.50;;
75758;SDS011;64371;47.566;19.086;2023-09-07T13:54:52;6.30;;;3.53;;
75758;SDS011;64371;47.566;19.086;2023-09-07T13:57:55;5.38;;;3.60;;
75758;SDS011;64371;47.566;19.086;2023-09-07T14:00:57;4.45;;;3.10;;
75758;SDS011;64371;47.566;19.086;2023-09-07T14:04:00;6.37;;;3.33;;
75758;SDS011;64371;47.566;19.086;2023-09-07T14:07:02;4.47;;;3.28;;
75758;SDS011;64371;47.566;19.086;2023-09-07T14:10:05;3.83;;;3.05;;
75758;SDS011;64371;47.566;19.086;2023-09-07T14:13:08;5.80;;;4.10;;
75758;SDS011;64371;47.566;19.086;2023-09-07T14:16:10;4.15;;;2.42;;
75758;SDS011;64371;47.566;19.086;2023-09-07T14:19:13;4.07;;;3.30;;
75758;SDS011;64371;47.566;19.086;2023-09-07T14:22:18;3.85;;;3.42;;
75758;SDS011;64371;47.566;19.086;2023-09-07T14:25:22;5.13;;;3.00;;
75758;SDS011;64371;47.566;19.086;2023-09-07T14:28:25;8.00;;;2.80;;
75758;SDS011;64371;47.566;19.086;2023-09-07T14:31:28;3.47;;;3.00;;
75758;SDS011;64371;47.566;19.086;2023-09-07T14:34:30;5.30;;;3.10;;
75758;SDS011;64371;47.566;19.086;2023-09-07T14:37:32;4.53;;;3.45;;
75758;SDS011;64371;47.566;19.086;2023-09-07T14:40:35;4.78;;;2.97;;
75758;SDS011;64371;47.566;19.086;2023-09-07T14:43:37;4.50;;;2.85;;
75758;SDS011;64371;47.566;19.086;2023-09-07T14:46:41;5.55;;;3.83;;
75758;SDS011;64371;47.566;19.086;2023-09-07T14:49:44;6.53;;;3.40;;
75758;SDS011;64371;47.566;19.086;2023-09-07T14:52:46;5.13;;;3.47;;
75758;SDS011;64371;47.566;19.086;2023-09-07T14:55:49;5.28;;;3.40;;
75758;SDS011;64371;47.566;19.086;2023-09-07T14:58:51;5.88;;;3.50;;
75758;SDS011;64371;47.566;19.086;2023-09-07T15:01:54;7.80;;;3.15;;
75758;SDS011;64371;47.566;19.086;2023-09-07T15:05:05;5.90;;;3.40;;
75758;SDS011;64371;47.566;19.086;2023-09-07T15:08:07;5.25;;;3.90;;
75758;SDS011;64371;47.566;19.086;2023-09-07T15:11:11;4.93;;;3.55;;
75758;SDS011;64371;47.566;19.086;2023-09-07T15:14:16;5.25;;;3.85;;
75758;SDS011;64371;47.566;19.086;2023-09-07T15:17:18;5.10;;;3.72;;
75758;SDS011;64371;47.566;19.086;2023-09-07T15:20:21;3.83;;;3.40;;
75758;SDS011;64371;47.566;19.086;2023-09-07T15:23:24;4.50;;;3.17;;
75758;SDS011;64371;47.566;19.086;2023-09-07T15:26:26;4.53;;;3.15;;
75758;SDS011;64371;47.566;19.086;2023-09-07T15:29:29;4.45;;;3.17;;
75758;SDS011;64371;47.566;19.086;2023-09-07T15:32:31;5.53;;;3.05;;
75758;SDS011;64371;47.566;19.086;2023-09-07T15:35:34;5.37;;;3.63;;
75758;SDS011;64371;47.566;19.086;2023-09-07T15:38:36;7.50;;;3.30;;
75758;SDS011;64371;47.566;19.086;2023-09-07T15:41:39;5.55;;;3.40;;
75758;SDS011;64371;47.566;19.086;2023-09-07T15:44:44;6.35;;;3.50;;
75758;SDS011;64371;47.566;19.086;2023-09-07T15:47:50;6.95;;;3.95;;
75758;SDS011;64371;47.566;19.086;2023-09-07T15:50:52;4.93;;;3.53;;
75758;SDS011;64371;47.566;19.086;2023-09-07T15:53:55;6.93;;;3.80;;
75758;SDS011;64371;47.566;19.086;2023-09-07T15:56:58;6.00;;;3.50;;
75758;SDS011;64371;47.566;19.086;2023-09-07T16:00:06;5.85;;;3.40;;
75758;SDS011;64371;47.566;19.086;2023-09-07T16:03:13;4.72;;;3.58;;
75758;SDS011;64371;47.566;19.086;2023-09-07T16:06:18;5.10;;;3.40;;
75758;SDS011;64371;47.566;19.086;2023-09-07T16:09:21;4.97;;;3.55;;
75758;SDS011;64371;47.566;19.086;2023-09-07T16:12:25;5.45;;;3.60;;
75758;SDS011;64371;47.566;19.086;2023-09-07T16:15:27;4.30;;;3.20;;
75758;SDS011;64371;47.566;19.086;2023-09-07T16:18:32;4.68;;;3.10;;
75758;SDS011;64371;47.566;19.086;2023-09-07T16:21:35;5.70;;;3.10;;
75758;SDS011;64371;47.566;19.086;2023-09-07T16:24:38;5.55;;;3.50;;
75758;SDS011;64371;47.566;19.086;2023-09-07T16:27:41;5.18;;;3.55;;
75758;SDS011;64371;47.566;19.086;2023-09-07T16:30:44;5.43;;;3.55;;
75758;SDS011;64371;47.566;19.086;2023-09-07T16:33:49;6.88;;;3.50;;
75758;SDS011;64371;47.566;19.086;2023-09-07T16:36:52;4.93;;;3.47;;
75758;SDS011;64371;47.566;19.086;2023-09-07T16:39:56;7.63;;;3.55;;
75758;SDS011;64371;47.566;19.086;2023-09-07T16:42:59;5.65;;;3.90;;
75758;SDS011;64371;47.566;19.086;2023-09-07T16:46:03;5.57;;;3.40;;
75758;SDS011;64371;47.566;19.086;2023-09-07T16:49:08;7.93;;;3.40;;
75758;SDS011;64371;47.566;19.086;2023-09-07T16:52:13;4.60;;;3.13;;
75758;SDS011;64371;47.566;19.086;2023-09-07T16:55:16;6.70;;;3.67;;
75758;SDS011;64371;47.566;19.086;2023-09-07T16:58:18;6.70;;;3.80;;
75758;SDS011;64371;47.566;19.086;2023-09-07T17:01:22;5.47;;;3.85;;
75758;SDS011;64371;47.566;19.086;2023-09-07T17:04:32;7.00;;;4.10;;
75758;SDS011;64371;47.566;19.086;2023-09-07T17:07:36;5.77;;;3.87;;
75758;SDS011;64371;47.566;19.086;2023-09-07T17:10:41;6.97;;;4.53;;
75758;SDS011;64371;47.566;19.086;2023-09-07T17:13:43;8.10;;;3.90;;
75758;SDS011;64371;47.566;19.086;2023-09-07T17:17:02;6.25;;;4.35;;
75758;SDS011;64371;47.566;19.086;2023-09-07T17:20:05;7.93;;;4.55;;
75758;SDS011;64371;47.566;19.086;2023-09-07T17:23:07;5.63;;;3.57;;
75758;SDS011;64371;47.566;19.086;2023-09-07T17:26:12;7.22;;;4.10;;
75758;SDS011;64371;47.566;19.086;2023-09-07T17:29:15;11.23;;;4.78;;
75758;SDS011;64371;47.566;19.086;2023-09-07T17:32:19;8.38;;;4.30;;
75758;SDS011;64371;47.566;19.086;2023-09-07T17:35:22;6.07;;;3.78;;
75758;SDS011;64371;47.566;19.086;2023-09-07T17:38:25;8.27;;;4.60;;
75758;SDS011;64371;47.566;19.086;2023-09-07T17:41:28;6.63;;;3.78;;
75758;SDS011;64371;47.566;19.086;2023-09-07T17:44:32;9.43;;;4.50;;
75758;SDS011;64371;47.566;19.086;2023-09-07T17:47:35;7.75;;;4.00;;
75758;SDS011;64371;47.566;19.086;2023-09-07T17:50:38;8.05;;;4.40;;
75758;SDS011;64371;47.566;19.086;2023-09-07T17:53:43;8.33;;;4.47;;
75758;SDS011;64371;47.566;19.086;2023-09-07T17:56:45;11.60;;;4.50;;
75758;SDS011;64371;47.566;19.086;2023-09-07T17:59:47;7.32;;;4.40;;
75758;SDS011;64371;47.566;19.086;2023-09-07T18:03:00;10.05;;;4.18;;
75758;SDS011;64371;47.566;19.086;2023-09-07T18:06:03;8.25;;;4.05;;
75758;SDS011;64371;47.566;19.086;2023-09-07T18:09:06;8.57;;;4.20;;
75758;SDS011;64371;47.566;19.086;2023-09-07T18:12:11;8.27;;;4.35;;
75758;SDS011;64371;47.566;19.086;2023-09-07T18:15:15;7.80;;;4.20;;
75758;SDS011;64371;47.566;19.086;2023-09-07T18:18:18;8.45;;;4.10;;
75758;SDS011;64371;47.566;19.086;2023-09-07T18:21:20;9.30;;;4.70;;